Time;durP1;ratioP1;P1;durP2;ratioP2;P2;SDS_P1;SDS_P2;PMS_P1;PMS_P2;Temp;Humidity;BMP_temperature;BMP_pressure;BME280_temperature;BME280_humidity;BME280_pressure;Samples;Min_cycle;Max_cycle;Signal;HPM_P1;HPM_P2
2021/10/01 00:02:07;;;;;;;40.78;26.52;;;;;;;2.13;100.00;100917.69;1696009;83;20925;-58
2021/10/01 00:04:36;;;;;;;39.03;25.17;;;;;;;2.06;100.00;100916.22;1690382;83;21455;-58
2021/10/01 00:07:03;;;;;;;43.63;25.60;;;;;;;2.02;100.00;100912.73;1704854;83;21402;-59
2021/10/01 00:09:31;;;;;;;45.63;26.55;;;;;;;1.98;100.00;100919.34;1704768;82;21438;-59
2021/10/01 00:11:58;;;;;;;39.65;25.02;;;;;;;1.93;100.00;100919.33;1699481;83;20926;-61
2021/10/01 00:14:26;;;;;;;45.30;28.83;;;;;;;1.84;100.00;100921.66;1705076;83;21055;-58
2021/10/01 00:16:55;;;;;;;49.60;30.60;;;;;;;1.79;100.00;100917.82;1697707;83;21502;-59
2021/10/01 00:19:23;;;;;;;;;;;;;;;1.74;100.00;100914.36;1698914;83;21481;-59
2021/10/01 00:21:50;;;;;;;42.78;24.95;;;;;;;1.71;100.00;100909.38;1698106;83;20598;-59
2021/10/01 00:24:17;;;;;;;44.63;26.82;;;;;;;1.73;100.00;100906.58;1704688;83;20972;-58
2021/10/01 00:26:44;;;;;;;45.95;26.62;;;;;;;1.75;100.00;100899.30;1698494;82;21593;-58
2021/10/01 00:29:12;;;;;;;46.88;29.35;;;;;;;1.74;100.00;100903.78;1705730;83;21054;-58
2021/10/01 00:31:39;;;;;;;40.73;28.42;;;;;;;1.68;100.00;100902.59;1698052;83;20964;-58
2021/10/01 00:34:07;;;;;;;;;;;;;;;1.63;100.00;100900.92;1707531;82;21503;-58
2021/10/01 00:36:35;;;;;;;38.55;27.17;;;;;;;1.54;100.00;100901.06;1703511;82;20403;-58
2021/10/01 00:39:04;;;;;;;38.10;25.20;;;;;;;1.44;100.00;100902.03;1688561;83;21067;-59
2021/10/01 00:41:31;;;;;;;38.75;25.45;;;;;;;1.39;100.00;100903.51;1704013;83;20973;-59
2021/10/01 00:43:58;;;;;;;39.90;27.65;;;;;;;1.37;100.00;100902.37;1705528;83;20973;-58
2021/10/01 00:46:25;;;;;;;39.95;26.15;;;;;;;1.32;100.00;100897.20;1700407;82;21547;-58
2021/10/01 00:48:53;;;;;;;42.93;26.82;;;;;;;1.25;100.00;100899.17;1702659;83;21048;-59
2021/10/01 00:51:23;;;;;;;38.58;26.23;;;;;;;1.17;100.00;100897.80;1688903;83;21501;-58
2021/10/01 00:53:51;;;;;;;39.15;26.70;;;;;;;1.10;100.00;100895.96;1693163;83;21012;-58
2021/10/01 00:56:20;;;;;;;57.93;29.65;;;;;;;0.99;100.00;100903.19;1700462;83;20961;-58
2021/10/01 00:58:48;;;;;;;40.78;26.02;;;;;;;0.95;100.00;100895.73;1706093;83;21709;-59
2021/10/01 01:01:15;;;;;;;41.50;28.00;;;;;;;0.98;100.00;100898.91;1703847;83;21537;-59
2021/10/01 01:04:00;;;;;;;51.95;29.45;;;;;;;1.06;100.00;100897.61;1699907;83;20988;-58
2021/10/01 01:06:57;;;;;;;43.70;28.40;;;;;;;1.09;100.00;100894.31;1701795;83;21442;-58
2021/10/01 01:09:51;;;;;;;42.48;27.17;;;;;;;1.04;100.00;100891.64;1699080;83;21032;-59
2021/10/01 01:12:55;;;;;;;42.70;27.48;;;;;;;0.95;100.00;100891.77;1705241;83;21860;-58
2021/10/01 01:15:33;;;;;;;42.65;26.25;;;;;;;0.79;100.00;100894.67;1692952;83;20913;-59
2021/10/01 01:18:12;;;;;;;37.83;24.50;;;;;;;0.64;100.00;100889.14;1696927;83;20924;-58
2021/10/01 01:20:51;;;;;;;44.55;27.48;;;;;;;0.63;100.00;100892.75;1699327;83;20969;-59
2021/10/01 01:23:43;;;;;;;45.45;27.00;;;;;;;0.59;100.00;100890.09;1693022;83;21336;-60
2021/10/01 01:26:39;;;;;;;43.63;28.90;;;;;;;0.51;100.00;100885.24;1664260;84;21874;-58
2021/10/01 01:29:33;;;;;;;40.85;27.27;;;;;;;0.48;100.00;100883.74;1677013;85;21499;-59
2021/10/01 01:32:20;;;;;;;43.68;27.82;;;;;;;0.45;100.00;100885.88;1668330;85;21521;-59
2021/10/01 01:34:58;;;;;;;46.80;30.17;;;;;;;0.50;100.00;100881.78;1655269;85;20956;-59
2021/10/01 01:37:41;;;;;;;40.70;27.58;;;;;;;0.51;100.00;100887.89;1640362;85;21458;-60
2021/10/01 01:40:09;;;;;;;54.95;29.20;;;;;;;0.51;100.00;100889.20;1676705;84;21462;-59
2021/10/01 01:42:39;;;;;;;44.67;27.22;;;;;;;0.49;100.00;100892.02;1649189;85;21170;-59
2021/10/01 01:45:08;;;;;;;46.30;29.02;;;;;;;0.42;100.00;100883.05;1644240;87;21530;-60
2021/10/01 01:47:34;;;;;;;;;;;;;;;0.42;100.00;100887.84;1647616;85;21029;-60
2021/10/01 01:50:01;;;;;;;51.48;29.92;;;;;;;0.35;100.00;100885.48;1625804;86;20151;-59
2021/10/01 01:52:29;;;;;;;46.73;28.65;;;;;;;0.26;100.00;100890.36;1655940;85;21135;-60
2021/10/01 01:54:56;;;;;;;44.93;29.25;;;;;;;0.18;100.00;100896.41;1664865;85;21003;-61
2021/10/01 01:57:23;;;;;;;46.90;29.57;;;;;;;0.14;100.00;100896.86;1673322;85;20982;-59
2021/10/01 01:59:51;;;;;;;47.70;31.80;;;;;;;0.11;100.00;100890.58;1676845;85;21005;-59
2021/10/01 02:02:18;;;;;;;57.65;27.00;;;;;;;0.03;100.00;100896.62;1650634;85;20957;-60
2021/10/01 02:04:46;;;;;;;43.50;30.08;;;;;;;-0.04;100.00;100894.25;1694342;83;21184;-59
2021/10/01 02:07:13;;;;;;;44.90;28.75;;;;;;;-0.11;100.00;100894.02;1703045;83;20873;-60
2021/10/01 02:09:40;;;;;;;44.80;27.70;;;;;;;-0.10;100.00;100900.12;1702271;83;20996;-59
2021/10/01 02:12:08;;;;;;;47.48;29.60;;;;;;;-0.11;100.00;100902.43;1712578;82;20873;-59
2021/10/01 02:14:38;;;;;;;45.83;30.97;;;;;;;-0.13;100.00;100908.34;1670224;83;21371;-59
2021/10/01 02:17:07;;;;;;;52.27;28.70;;;;;;;-0.14;100.00;100906.20;1707144;82;21149;-59
2021/10/01 02:19:34;;;;;;;48.90;29.50;;;;;;;-0.15;100.00;100902.38;1691662;82;21355;-61
2021/10/01 02:22:03;;;;;;;51.95;31.02;;;;;;;-0.14;100.00;100904.88;1659010;83;20953;-60
2021/10/01 02:24:30;;;;;;;47.75;29.63;;;;;;;-0.12;100.00;100904.71;1712366;82;20967;-59
2021/10/01 02:27:21;;;;;;;52.43;31.27;;;;;;;-0.19;100.00;100900.55;1694226;83;21331;-59
2021/10/01 02:29:57;;;;;;;51.92;31.93;;;;;;;-0.20;100.00;100901.52;1686229;83;21436;-58
2021/10/01 02:32:44;;;;;;;43.52;29.75;;;;;;;-0.19;100.00;100905.83;1700719;83;20960;-58
2021/10/01 02:35:11;;;;;;;47.00;29.42;;;;;;;-0.25;100.00;100909.88;1691554;83;21598;-58
2021/10/01 02:37:38;;;;;;;46.02;29.57;;;;;;;-0.32;100.00;100906.67;1695664;83;20970;-59
2021/10/01 02:40:07;;;;;;;43.40;27.90;;;;;;;-0.35;100.00;100915.72;1707636;83;21608;-58
2021/10/01 02:42:33;;;;;;;;;;;;;;;-0.37;100.00;100916.34;1704597;83;21088;-59
2021/10/01 02:45:01;;;;;;;47.08;31.05;;;;;;;-0.42;100.00;100910.69;1707724;83;20112;-59
2021/10/01 02:47:31;;;;;;;48.65;31.50;;;;;;;-0.41;100.00;100909.73;1703948;83;20898;-59
2021/10/01 02:49:59;;;;;;;51.30;29.57;;;;;;;-0.44;100.00;100906.91;1698240;83;20959;-58
2021/10/01 02:52:58;;;;;;;46.00;30.15;;;;;;;-0.45;100.00;100902.59;1715566;83;20909;-59
2021/10/01 02:55:47;;;;;;;62.75;29.23;;;;;;;-0.42;100.00;100902.78;1712364;83;21785;-60
2021/10/01 02:58:36;;;;;;;50.43;30.32;;;;;;;-0.41;100.00;100901.00;1705246;83;20921;-59
2021/10/01 03:01:05;;;;;;;47.17;27.85;;;;;;;-0.42;100.00;100912.02;1694066;83;20983;-59
2021/10/01 03:03:45;;;;;;;52.23;30.37;;;;;;;-0.41;100.00;100908.91;1703645;83;21474;-59
2021/10/01 03:06:13;;;;;;;46.00;28.95;;;;;;;-0.33;100.00;100903.70;1706814;83;22229;-59
2021/10/01 03:08:42;;;;;;;40.98;28.60;;;;;;;-0.25;100.00;100903.77;1704228;82;20979;-60
2021/10/01 03:11:11;;;;;;;47.75;30.43;;;;;;;-0.16;100.00;100904.70;1663318;83;21371;-59
2021/10/01 03:13:42;;;;;;;47.25;31.25;;;;;;;-0.06;100.00;100898.84;1712470;83;20857;-59
2021/10/01 03:16:09;;;;;;;63.15;33.05;;;;;;;0.03;100.00;100897.13;1713213;83;20920;-59
2021/10/01 03:18:35;;;;;;;49.05;30.75;;;;;;;0.06;100.00;100901.59;1693520;83;20901;-59
2021/10/01 03:21:07;;;;;;;53.90;34.20;;;;;;;0.05;100.00;100902.59;1701464;83;21901;-59
2021/10/01 03:23:35;;;;;;;47.53;28.23;;;;;;;0.05;100.00;100896.45;1694009;83;21031;-59
2021/10/01 03:26:02;;;;;;;46.40;29.80;;;;;;;0.12;100.00;100901.47;1687974;83;20884;-58
2021/10/01 03:28:29;;;;;;;51.15;29.70;;;;;;;0.16;100.00;100904.15;1699630;82;21514;-59
2021/10/01 03:30:56;;;;;;;54.27;31.42;;;;;;;0.17;100.00;100905.33;1694119;83;20889;-58
2021/10/01 03:33:24;;;;;;;53.17;31.93;;;;;;;0.15;100.00;100903.82;1715609;83;21450;-59
2021/10/01 03:35:51;;;;;;;52.85;30.15;;;;;;;0.13;100.00;100900.50;1696066;83;21054;-59
2021/10/01 03:38:19;;;;;;;45.33;28.38;;;;;;;0.10;100.00;100902.95;1705489;83;20925;-59
2021/10/01 03:40:47;;;;;;;48.08;26.30;;;;;;;0.04;100.00;100903.55;1700213;83;20856;-59
2021/10/01 03:43:14;;;;;;;51.30;32.42;;;;;;;-0.02;100.00;100899.72;1706432;83;21481;-59
2021/10/01 03:45:41;;;;;;;56.45;28.38;;;;;;;-0.02;100.00;100902.85;1705697;82;21706;-58
2021/10/01 03:48:09;;;;;;;65.42;32.28;;;;;;;-0.10;100.00;100900.12;1707430;83;21387;-59
2021/10/01 03:50:38;;;;;;;46.85;31.95;;;;;;;-0.13;100.00;100904.39;1702303;83;20869;-60
2021/10/01 03:53:05;;;;;;;51.68;31.25;;;;;;;-0.14;100.00;100901.42;1710410;83;21395;-58
2021/10/01 03:55:32;;;;;;;50.17;30.77;;;;;;;-0.16;100.00;100904.20;1710955;81;21495;-59
2021/10/01 03:57:58;;;;;;;50.03;30.25;;;;;;;-0.15;100.00;100902.38;1708212;82;21140;-60
2021/10/01 04:00:25;;;;;;;47.55;29.23;;;;;;;-0.14;100.00;100914.62;1709286;83;21068;-58
2021/10/01 04:02:52;;;;;;;55.98;28.85;;;;;;;-0.15;100.00;100906.34;1685217;83;21058;-59
2021/10/01 04:05:19;;;;;;;49.05;29.85;;;;;;;-0.15;100.00;100908.98;1694468;83;20937;-60
2021/10/01 04:07:47;;;;;;;67.50;41.10;;;;;;;-0.14;100.00;100908.02;1703993;83;21481;-59
2021/10/01 04:10:15;;;;;;;92.37;52.78;;;;;;;-0.14;100.00;100906.70;1703119;83;21400;-58
2021/10/01 04:12:44;;;;;;;77.30;41.70;;;;;;;-0.14;100.00;100913.30;1695393;83;20972;-59
2021/10/01 04:15:13;;;;;;;59.73;34.05;;;;;;;-0.14;100.00;100913.30;1708150;83;20969;-59
2021/10/01 04:17:40;;;;;;;45.35;29.30;;;;;;;-0.15;100.00;100912.45;1704188;83;21091;-59
2021/10/01 04:20:09;;;;;;;55.45;33.25;;;;;;;-0.14;100.00;100911.48;1693767;83;21410;-59
2021/10/01 04:22:36;;;;;;;49.63;32.73;;;;;;;-0.13;100.00;100915.77;1711837;82;21077;-58
2021/10/01 04:25:16;;;;;;;56.60;33.83;;;;;;;-0.11;100.00;100920.91;1700429;83;21321;-59
2021/10/01 04:27:43;;;;;;;52.73;33.70;;;;;;;-0.10;100.00;100922.55;1695941;82;20957;-59
2021/10/01 04:30:10;;;;;;;60.08;32.33;;;;;;;-0.08;100.00;100922.74;1702354;83;21449;-59
2021/10/01 04:32:44;;;;;;;57.43;35.98;;;;;;;-0.04;100.00;100921.97;1703484;83;20998;-59
2021/10/01 04:35:09;;;;;;;64.95;35.92;;;;;;;0.02;100.00;100921.34;1709994;83;21132;-59
2021/10/01 04:37:36;;;;;;;73.20;32.85;;;;;;;0.08;100.00;100928.67;1703683;83;20878;-59
2021/10/01 04:40:03;;;;;;;53.50;34.27;;;;;;;0.15;100.00;100932.37;1712050;83;20973;-58
2021/10/01 04:42:30;;;;;;;53.87;35.33;;;;;;;0.31;100.00;100931.66;1707777;81;20957;-58
2021/10/01 04:44:57;;;;;;;70.52;40.65;;;;;;;0.54;100.00;100932.48;1696112;83;20886;-58
2021/10/01 04:47:23;;;;;;;70.25;39.25;;;;;;;0.74;100.00;100931.31;1700855;83;21039;-58
2021/10/01 04:49:50;;;;;;;60.17;38.30;;;;;;;0.96;100.00;100937.06;1706575;83;20902;-59
2021/10/01 04:52:21;;;;;;;56.63;34.35;;;;;;;1.19;100.00;100938.65;1702178;83;20945;-58
2021/10/01 04:54:48;;;;;;;53.78;31.80;;;;;;;1.43;100.00;100938.75;1695511;84;20933;-58
2021/10/01 04:57:15;;;;;;;55.00;31.77;;;;;;;1.70;100.00;100944.28;1699324;83;20997;-58
2021/10/01 04:59:49;;;;;;;50.78;30.80;;;;;;;2.01;100.00;100945.02;1659280;83;21783;-59
2021/10/01 05:02:23;;;;;;;57.17;30.30;;;;;;;2.33;100.00;100941.56;1705599;83;20969;-58
2021/10/01 05:04:59;;;;;;;42.93;28.70;;;;;;;2.65;100.00;100949.16;1709613;83;20913;-58
2021/10/01 05:07:28;;;;;;;42.93;26.80;;;;;;;2.96;100.00;100948.42;1707164;83;20917;-58
2021/10/01 05:10:13;;;;;;;43.30;26.55;;;;;;;3.23;100.00;100955.14;1696118;83;21034;-58
2021/10/01 05:12:59;;;;;;;50.95;30.88;;;;;;;3.50;100.00;100958.35;1708240;83;21139;-58
2021/10/01 05:15:45;;;;;;;60.40;33.78;;;;;;;3.71;100.00;100956.44;1699548;82;21048;-58
2021/10/01 05:18:30;;;;;;;54.40;34.15;;;;;;;3.81;100.00;100967.16;1725909;83;20914;-58
2021/10/01 05:21:15;;;;;;;66.72;34.98;;;;;;;3.92;100.00;100966.42;1729591;82;20944;-58
2021/10/01 05:23:50;;;;;;;56.37;30.52;;;;;;;4.10;100.00;100964.84;1726973;81;20992;-58
2021/10/01 05:26:16;;;;;;;57.40;30.82;;;;;;;4.29;100.00;100973.67;1725480;82;21044;-59
2021/10/01 05:28:44;;;;;;;46.90;26.53;;;;;;;4.42;100.00;100965.91;1723297;82;21032;-58
2021/10/01 05:31:11;;;;;;;41.70;25.20;;;;;;;4.84;100.00;100975.68;1723892;82;20969;-59
2021/10/01 05:33:38;;;;;;;33.63;22.82;;;;;;;4.84;100.00;100975.68;1711616;83;21413;-60
2021/10/01 05:36:05;;;;;;;39.00;23.15;;;;;;;5.11;100.00;100984.38;1735408;81;21031;-60
2021/10/01 05:38:31;;;;;;;37.00;22.35;;;;;;;5.40;100.00;100981.39;1721930;82;21099;-58
2021/10/01 05:41:00;;;;;;;32.65;20.72;;;;;;;5.77;100.00;100990.25;1717388;82;20959;-59
2021/10/01 05:43:28;;;;;;;30.12;21.65;;;;;;;6.17;100.00;100994.71;1749243;81;20948;-60
2021/10/01 05:45:57;;;;;;;29.92;18.98;;;;;;;6.46;100.00;100994.28;1746525;80;21564;-59
2021/10/01 05:48:49;;;;;;;34.40;20.60;;;;;;;6.63;100.00;100992.48;1750193;81;20983;-60
2021/10/01 05:51:31;;;;;;;29.07;19.85;;;;;;;6.86;100.00;100992.27;1731695;81;21111;-58
2021/10/01 05:54:22;;;;;;;30.72;18.90;;;;;;;7.08;100.00;101005.05;1737834;81;20877;-60
2021/10/01 05:57:11;;;;;;;27.22;18.07;;;;;;;7.38;100.00;101006.16;1722520;82;20974;-60
2021/10/01 05:59:41;;;;;;;30.82;20.08;;;;;;;7.49;100.00;101012.78;1714052;82;20980;-58
2021/10/01 06:02:13;;;;;;;38.02;20.85;;;;;;;7.48;100.00;101013.30;1707291;82;21430;-59
2021/10/01 06:04:41;;;;;;;32.03;18.87;;;;;;;7.79;100.00;101014.69;1712116;82;21125;-59
2021/10/01 06:07:09;;;;;;;28.52;18.45;;;;;;;8.31;100.00;101019.87;1747760;82;20881;-59
2021/10/01 06:09:36;;;;;;;34.33;19.87;;;;;;;8.64;100.00;101016.43;1723504;82;21041;-60
2021/10/01 06:12:04;;;;;;;27.40;18.57;;;;;;;8.62;100.00;101022.50;1733016;82;20932;-59
2021/10/01 06:14:32;;;;;;;28.50;17.73;;;;;;;8.81;100.00;101024.88;1742207;80;21063;-60
2021/10/01 06:17:01;;;;;;;24.40;17.32;;;;;;;9.17;100.00;101015.07;1738134;80;21488;-60
2021/10/01 06:19:27;;;;;;;26.95;17.90;;;;;;;9.08;100.00;101017.66;1744106;80;20926;-59
2021/10/01 06:21:55;;;;;;;28.15;16.70;;;;;;;9.26;100.00;101023.73;1745117;80;21064;-59
2021/10/01 06:24:22;;;;;;;25.20;17.15;;;;;;;9.59;100.00;101022.28;1706810;82;20963;-58
2021/10/01 06:26:50;;;;;;;24.02;16.87;;;;;;;9.93;100.00;101029.69;1701680;84;21420;-59
2021/10/01 06:29:17;;;;;;;25.08;16.93;;;;;;;10.18;100.00;101027.61;1696138;84;21116;-59
2021/10/01 06:31:44;;;;;;;29.32;19.15;;;;;;;10.16;100.00;101032.36;1675595;84;21473;-58
2021/10/01 06:34:11;;;;;;;32.70;20.80;;;;;;;10.23;100.00;101033.97;1691594;82;21021;-59
2021/10/01 06:36:38;;;;;;;36.03;20.55;;;;;;;10.26;100.00;101031.37;1680537;83;21461;-60
2021/10/01 06:39:06;;;;;;;28.02;19.02;;;;;;;10.19;100.00;101030.58;1683585;84;20989;-59
2021/10/01 06:41:34;;;;;;;21.15;14.85;;;;;;;10.28;100.00;101036.03;1683543;84;21627;-59
2021/10/01 06:44:04;;;;;;;25.40;17.02;;;;;;;10.18;100.00;101031.62;1676881;84;21057;-59
2021/10/01 07:21:01;;;;;;;27.40;17.00;;;;;;;11.08;100.00;101040.83;1675883;84;21144;-59
2021/10/01 07:35:23;;;;;;;14.05;8.95;;;;;;;13.55;75.61;101054.41;1652348;86;21455;-57
2021/10/01 08:18:25;;;;;;;14.80;7.62;;;;;;;14.04;66.53;101055.72;1694141;83;20965;-59
2021/10/01 08:21:10;;;;;;;14.58;9.83;;;;;;;14.74;59.64;101047.81;1667789;85;21043;-59
2021/10/01 08:23:37;;;;;;;12.60;7.78;;;;;;;15.23;59.12;101049.39;1716139;82;20991;-60
2021/10/01 08:26:03;;;;;;;12.65;7.35;;;;;;;15.42;57.04;101046.42;1724374;83;20933;-59
2021/10/01 08:28:30;;;;;;;10.53;6.80;;;;;;;15.13;56.83;101045.72;1699242;83;21851;-59
2021/10/01 08:30:59;;;;;;;10.35;6.28;;;;;;;15.35;56.39;101049.30;1709118;82;20909;-59
2021/10/01 08:33:26;;;;;;;10.40;5.42;;;;;;;15.35;56.39;101049.30;1716377;82;20920;-59
2021/10/01 08:35:52;;;;;;;8.55;4.83;;;;;;;15.36;51.27;101044.70;1717390;82;21027;-59
2021/10/01 08:38:20;;;;;;;8.20;5.08;;;;;;;15.36;51.27;101044.70;1725065;81;21487;-60
2021/10/01 08:40:46;;;;;;;13.75;5.60;;;;;;;15.17;51.05;101051.75;1750862;81;21739;-59
2021/10/01 08:43:13;;;;;;;10.48;6.15;;;;;;;15.33;51.81;101051.96;1728174;82;20908;-59
2021/10/01 08:45:41;;;;;;;8.73;5.58;;;;;;;15.47;51.59;101048.38;1728065;82;20956;-59
2021/10/01 08:48:08;;;;;;;10.75;6.55;;;;;;;15.67;51.11;101046.47;1742408;80;21441;-60
2021/10/01 08:50:34;;;;;;;10.32;5.70;;;;;;;15.89;51.68;101042.44;1729947;82;21103;-59
2021/10/01 08:53:03;;;;;;;9.00;6.47;;;;;;;15.85;49.49;101043.50;1735474;81;21119;-60
2021/10/01 08:55:31;;;;;;;6.67;5.15;;;;;;;15.81;49.07;101044.52;1741891;81;20959;-59
2021/10/01 08:57:58;;;;;;;8.78;4.75;;;;;;;15.75;49.80;101037.94;1744985;80;20961;-58
2021/10/01 09:00:24;;;;;;;16.25;5.33;;;;;;;15.72;50.76;101034.39;1737528;82;21096;-58
2021/10/01 09:02:51;;;;;;;10.03;4.90;;;;;;;15.67;50.17;101036.45;1733400;80;21048;-58
2021/10/01 09:05:18;;;;;;;5.45;4.00;;;;;;;15.94;49.64;101032.48;1735927;80;21078;-59
2021/10/01 09:07:45;;;;;;;7.65;4.40;;;;;;;16.19;47.89;101025.70;1738033;80;21003;-59
2021/10/01 09:10:15;;;;;;;8.35;4.05;;;;;;;16.40;47.15;101029.45;1739463;80;21069;-59
2021/10/01 09:12:51;;;;;;;8.68;4.40;;;;;;;16.34;44.71;101031.30;1745172;82;20990;-59
2021/10/01 09:15:18;;;;;;;6.60;4.10;;;;;;;15.94;45.14;101024.90;1746795;82;20956;-59
2021/10/01 09:17:50;;;;;;;7.67;4.40;;;;;;;15.81;44.32;101034.23;1728185;82;21300;-61
2021/10/01 09:20:25;;;;;;;4.67;4.10;;;;;;;15.80;44.43;101021.23;1734045;82;20901;-60
2021/10/01 09:22:53;;;;;;;6.15;3.98;;;;;;;15.73;44.88;101013.84;1722593;82;20916;-60
2021/10/01 09:25:24;;;;;;;5.12;4.50;;;;;;;15.77;46.91;101024.97;1672134;83;21004;-60
2021/10/01 09:28:01;;;;;;;5.50;3.98;;;;;;;15.95;44.79;101022.46;1711047;82;21604;-62
2021/10/01 09:30:27;;;;;;;4.97;4.45;;;;;;;15.93;45.36;101015.97;1701605;83;21743;-60
2021/10/01 09:33:11;;;;;;;7.10;4.35;;;;;;;16.35;45.81;101021.27;1723451;83;21419;-60
2021/10/01 09:35:42;;;;;;;4.37;3.62;;;;;;;16.80;44.49;101024.13;1723199;83;20962;-60
2021/10/01 09:38:15;;;;;;;5.00;4.20;;;;;;;16.58;42.88;101019.57;1657468;85;20918;-60
2021/10/01 09:40:43;;;;;;;6.55;3.87;;;;;;;16.41;42.84;101022.43;1693636;82;21072;-59
2021/10/01 09:43:30;;;;;;;11.22;5.47;;;;;;;15.94;42.85;101017.59;1683832;84;20887;-60
2021/10/01 09:46:09;;;;;;;9.20;5.72;;;;;;;15.97;43.01;101015.75;1696754;83;20911;-60
2021/10/01 09:48:37;;;;;;;7.97;4.30;;;;;;;15.88;42.79;101005.63;1701735;82;20988;-60
2021/10/01 09:51:14;;;;;;;8.58;5.30;;;;;;;15.72;43.59;101002.72;1705511;82;21427;-61
2021/10/01 09:53:48;;;;;;;7.33;4.30;;;;;;;15.99;43.61;101006.81;1665006;85;21024;-59
2021/10/01 09:56:30;;;;;;;19.42;5.33;;;;;;;16.28;43.04;101000.61;1666700;85;23327;-60
2021/10/01 09:59:20;;;;;;;8.33;6.80;;;;;;;16.35;43.17;101004.47;1661742;84;21074;-60
2021/10/01 10:02:12;;;;;;;5.55;4.55;;;;;;;16.41;43.39;101003.97;1697943;83;20988;-60
2021/10/01 10:04:52;;;;;;;7.78;4.75;;;;;;;16.83;42.60;100994.61;1660882;85;21029;-61
2021/10/01 10:07:27;;;;;;;9.30;4.80;;;;;;;16.82;41.44;100987.53;1681516;84;21030;-61
2021/10/01 10:10:04;;;;;;;7.22;4.45;;;;;;;16.82;41.44;100987.53;1652994;85;20952;-61
2021/10/01 10:12:38;;;;;;;4.62;3.70;;;;;;;16.87;41.28;100993.54;1694829;83;21471;-61
2021/10/01 10:15:11;;;;;;;7.85;5.00;;;;;;;16.85;40.56;100987.55;1703826;83;21011;-61
2021/10/01 10:17:48;;;;;;;5.87;4.40;;;;;;;17.13;39.88;100984.49;1700275;83;20924;-61
2021/10/01 10:20:18;;;;;;;8.65;4.37;;;;;;;17.36;40.53;100983.24;1662849;84;20910;-60
2021/10/01 10:22:46;;;;;;;7.85;3.70;;;;;;;17.31;39.94;100981.05;1686491;84;21746;-59
2021/10/01 10:25:13;;;;;;;5.60;4.42;;;;;;;16.98;39.87;100974.91;1714237;83;20913;-59
2021/10/01 10:27:39;;;;;;;5.15;4.08;;;;;;;17.13;40.91;100985.84;1708437;83;20837;-59
2021/10/01 10:30:10;;;;;;;6.50;4.25;;;;;;;17.49;39.55;100989.27;1723803;82;21408;-60
2021/10/01 10:32:36;;;;;;;5.92;4.70;;;;;;;17.37;38.07;100989.52;1719638;82;20888;-61
2021/10/01 10:35:06;;;;;;;7.45;5.87;;;;;;;17.36;38.91;100991.93;1724291;82;21172;-59
2021/10/01 10:37:47;;;;;;;6.90;4.33;;;;;;;17.64;38.62;100987.16;1724624;82;20991;-60
2021/10/01 10:40:18;;;;;;;7.53;4.87;;;;;;;17.50;38.30;100988.20;1714614;82;21476;-59
2021/10/01 10:42:50;;;;;;;6.03;4.75;;;;;;;17.39;38.93;100979.73;1701277;82;20974;-59
2021/10/01 10:45:23;;;;;;;7.85;4.65;;;;;;;17.30;38.57;100978.08;1718994;82;20878;-60
2021/10/01 10:47:59;;;;;;;7.70;4.42;;;;;;;17.41;37.39;100977.03;1728056;82;21123;-60
2021/10/01 10:50:42;;;;;;;5.90;4.40;;;;;;;17.58;38.56;100976.83;1689055;83;21478;-60
2021/10/01 10:53:12;;;;;;;7.80;5.15;;;;;;;17.46;39.12;100966.73;1703076;83;21380;-59
2021/10/01 10:56:02;;;;;;;9.60;6.65;;;;;;;17.53;39.35;100966.77;1686996;83;20921;-59
2021/10/01 10:58:37;;;;;;;12.20;6.35;;;;;;;17.85;38.40;100968.52;1684954;84;20869;-62
2021/10/01 11:01:23;;;;;;;13.25;5.20;;;;;;;17.29;38.49;100950.09;1685158;85;21130;-62
2021/10/01 11:03:54;;;;;;;8.03;4.78;;;;;;;17.13;39.36;100962.78;1685239;85;21378;-60
2021/10/01 11:06:21;;;;;;;6.10;4.50;;;;;;;17.57;39.77;100962.99;1663612;84;20973;-61
2021/10/01 11:09:16;;;;;;;9.35;5.12;;;;;;;17.49;39.26;100955.34;1670193;84;21022;-60
2021/10/01 11:11:46;;;;;;;7.93;4.50;;;;;;;17.62;39.13;100956.77;1685213;83;21475;-61
2021/10/01 11:14:19;;;;;;;11.18;6.37;;;;;;;17.54;38.81;100953.48;1698442;83;21020;-61
2021/10/01 11:16:57;;;;;;;7.65;4.95;;;;;;;17.89;38.91;100949.81;1701774;82;21017;-60
2021/10/01 11:19:39;;;;;;;12.05;5.72;;;;;;;18.21;38.43;100957.73;1679640;83;21569;-59
2021/10/01 11:22:34;;;;;;;12.68;4.72;;;;;;;18.07;37.45;100956.63;1686095;83;20952;-59
2021/10/01 11:25:13;;;;;;;10.58;4.90;;;;;;;17.78;36.97;100955.19;1713342;83;21026;-59
2021/10/01 11:27:57;;;;;;;6.00;4.50;;;;;;;17.81;36.81;100944.37;1703637;82;21116;-60
2021/10/01 11:30:27;;;;;;;5.87;4.78;;;;;;;18.06;37.15;100941.42;1708855;83;21043;-60
2021/10/01 11:32:53;;;;;;;9.18;4.95;;;;;;;18.26;36.68;100944.14;1713586;83;21400;-59
2021/10/01 11:35:20;;;;;;;8.15;4.00;;;;;;;18.14;38.06;100941.69;1713571;83;21004;-59
2021/10/01 11:37:48;;;;;;;6.28;4.50;;;;;;;18.14;36.73;100941.69;1699806;83;20954;-59
2021/10/01 11:40:26;;;;;;;;;;;;;;;17.87;37.88;100943.83;1687419;85;21135;-60
2021/10/01 11:42:59;;;;;;;7.62;3.52;;;;;;;18.02;37.13;100934.34;1684753;85;20155;-60
2021/10/01 11:45:34;;;;;;;8.43;4.15;;;;;;;18.06;36.15;100934.08;1709958;84;20938;-59
2021/10/01 11:48:06;;;;;;;6.75;4.83;;;;;;;18.14;36.85;100928.09;1716422;82;21017;-60
2021/10/01 11:50:40;;;;;;;7.72;4.35;;;;;;;17.82;35.78;100929.69;1681765;83;21013;-59
2021/10/01 11:53:18;;;;;;;5.90;4.05;;;;;;;17.68;36.26;100916.31;1640408;87;21196;-59
2021/10/01 11:56:03;;;;;;;5.08;3.67;;;;;;;17.53;36.47;100913.02;1710945;83;20921;-58
2021/10/01 11:58:33;;;;;;;10.67;5.33;;;;;;;17.43;36.87;100907.02;1713710;82;21526;-59
2021/10/01 12:01:11;;;;;;;7.17;4.80;;;;;;;17.52;38.02;100909.49;1725745;83;21445;-58
2021/10/01 12:03:53;;;;;;;26.93;17.32;;;;;;;17.88;38.17;100911.49;1727835;83;21344;-59
2021/10/01 12:06:32;;;;;;;7.55;5.12;;;;;;;18.24;37.51;100908.27;1727715;82;21823;-60
2021/10/01 12:09:02;;;;;;;4.53;3.80;;;;;;;18.37;36.45;100900.94;1725771;83;20984;-60
2021/10/01 12:11:33;;;;;;;5.78;3.72;;;;;;;17.66;36.01;100896.76;1711268;83;20853;-59
2021/10/01 12:14:20;;;;;;;4.58;3.87;;;;;;;17.66;36.01;100896.76;1698631;84;21001;-59
2021/10/01 12:16:59;;;;;;;7.65;5.65;;;;;;;17.66;37.53;100905.71;1720466;83;21023;-60
2021/10/01 12:19:26;;;;;;;;;;;;;;;17.66;37.53;100905.71;1717917;83;21729;-60
2021/10/01 12:22:05;;;;;;;10.05;5.00;;;;;;;17.71;36.42;100904.39;1698915;83;20185;-59
2021/10/01 12:24:54;;;;;;;27.75;11.25;;;;;;;17.71;35.69;100892.17;1709288;82;21050;-59
2021/10/01 12:27:37;;;;;;;38.58;20.60;;;;;;;17.91;36.46;100886.53;1709282;83;20885;-60
2021/10/01 12:30:05;;;;;;;15.60;7.47;;;;;;;18.16;36.30;100885.72;1686870;83;21004;-59
2021/10/01 12:32:31;;;;;;;16.37;9.18;;;;;;;18.34;36.61;100895.22;1686732;83;21066;-59
2021/10/01 12:34:59;;;;;;;21.68;11.78;;;;;;;18.33;36.73;100891.70;1695555;83;20976;-60
2021/10/01 12:37:29;;;;;;;15.20;8.98;;;;;;;18.51;37.37;100885.42;1696397;83;23082;-59
2021/10/01 12:40:00;;;;;;;7.60;5.08;;;;;;;18.52;36.86;100890.59;1714146;83;20917;-59
2021/10/01 12:42:30;;;;;;;8.03;5.40;;;;;;;18.10;36.28;100887.60;1683875;83;21441;-59
2021/10/01 12:45:14;;;;;;;12.95;8.60;;;;;;;17.81;36.91;100885.14;1690084;82;20948;-60
2021/10/01 12:47:44;;;;;;;12.05;9.33;;;;;;;18.04;37.33;100885.98;1687851;82;20940;-59
2021/10/01 12:50:32;;;;;;;8.33;5.22;;;;;;;18.06;36.74;100883.02;1705019;83;21525;-59
2021/10/01 12:53:02;;;;;;;5.58;4.30;;;;;;;17.95;35.70;100878.91;1709719;83;21067;-59
2021/10/01 12:55:32;;;;;;;6.92;4.95;;;;;;;17.67;36.40;100883.47;1713647;83;21348;-60
2021/10/01 12:57:59;;;;;;;6.20;4.50;;;;;;;17.84;37.83;100875.92;1688214;83;21690;-59
2021/10/01 13:00:31;;;;;;;9.15;4.55;;;;;;;17.84;37.83;100875.92;1688532;83;20998;-59
2021/10/01 13:03:05;;;;;;;7.30;5.20;;;;;;;17.70;37.89;100870.71;1688733;83;21465;-59
2021/10/01 13:05:40;;;;;;;8.38;6.05;;;;;;;17.79;38.19;100867.20;1690406;84;21001;-59